createdAt,value
2023-02-14T00:00:44.403Z,103337.13
2023-02-14T00:03:30.870Z,103333.94
2023-02-14T00:06:18.722Z,103334.47
2023-02-14T00:09:06.217Z,103332.53
2023-02-14T00:11:52.957Z,103325.66
2023-02-14T00:14:57.581Z,103338.19
2023-02-14T00:17:44.078Z,103329.44
2023-02-14T00:20:30.874Z,103326.31
2023-02-14T00:23:18.702Z,103329.94
2023-02-14T00:26:05.453Z,103313.91
2023-02-14T00:28:51.818Z,103316.78
2023-02-14T00:31:38.835Z,103315.69
2023-02-14T00:34:26.022Z,103314.63
2023-02-14T00:37:12.684Z,103311.16
2023-02-14T00:40:00.572Z,103305.44
2023-02-14T00:42:47.023Z,103310.00
2023-02-14T00:45:34.437Z,103316.78
2023-02-14T00:48:21.218Z,103305.38
2023-02-14T00:51:08.164Z,103306.81
2023-02-14T00:53:54.679Z,103309.69
2023-02-14T00:56:42.702Z,103309.94
2023-02-14T00:59:29.047Z,103306.22
2023-02-14T01:02:15.644Z,103313.97
2023-02-14T01:05:02.121Z,103318.75
2023-02-14T01:07:48.810Z,103311.19
2023-02-14T01:10:37.363Z,103318.34
2023-02-14T01:13:25.322Z,103312.78
2023-02-14T01:16:15.775Z,103312.28
2023-02-14T01:19:02.369Z,103304.47
2023-02-14T01:21:48.868Z,103307.91
2023-02-14T01:24:36.732Z,103304.34
2023-02-14T01:27:23.142Z,103302.56
2023-02-14T01:30:12.770Z,103305.50
2023-02-14T01:33:00.128Z,103304.06
2023-02-14T01:35:47.180Z,103299.31
2023-02-14T01:38:34.848Z,103303.94
2023-02-14T01:41:21.724Z,103300.59
2023-02-14T01:44:29.501Z,103297.22
2023-02-14T01:47:18.368Z,103299.44
2023-02-14T01:50:10.588Z,103305.56
2023-02-14T01:53:01.456Z,103303.75
2023-02-14T01:55:52.806Z,103299.69
2023-02-14T01:58:45.280Z,103307.13
2023-02-14T02:01:32.494Z,103299.63
2023-02-14T02:04:25.668Z,103297.34
2023-02-14T02:07:16.954Z,103295.13
2023-02-14T02:10:07.996Z,103294.16
2023-02-14T02:12:54.955Z,103304.94
2023-02-14T02:15:48.688Z,103308.56
2023-02-14T02:18:48.638Z,103301.53
2023-02-14T02:22:12.669Z,103301.53
2023-02-14T02:25:12.490Z,103309.41
2023-02-14T02:28:34.374Z,103313.91
2023-02-14T02:31:32.030Z,103314.72
2023-02-14T02:34:56.889Z,103313.28
2023-02-14T02:37:59.929Z,103310.91
2023-02-14T02:40:51.714Z,103307.06
2023-02-14T02:43:45.960Z,103308.56
2023-02-14T02:46:49.508Z,103300.88
2023-02-14T02:50:04.644Z,103298.22
2023-02-14T02:53:06.204Z,103300.47
2023-02-14T02:56:16.534Z,103311.00
2023-02-14T02:59:07.193Z,103310.84
2023-02-14T03:01:56.135Z,103310.94
2023-02-14T03:04:54.723Z,103310.06
2023-02-14T03:07:43.047Z,103313.75
2023-02-14T03:10:37.264Z,103312.31
2023-02-14T03:13:37.133Z,103309.88
2023-02-14T03:16:29.355Z,103316.78
2023-02-14T03:19:50.995Z,103317.31
2023-02-14T03:22:49.732Z,103312.59
2023-02-14T03:25:46.102Z,103322.66
2023-02-14T03:28:43.698Z,103324.94
2023-02-14T03:31:35.359Z,103334.72
2023-02-14T03:34:31.464Z,103337.09
2023-02-14T03:37:24.103Z,103337.09
2023-02-14T03:40:14.750Z,103338.63
2023-02-14T03:43:08.324Z,103336.28
2023-02-14T03:46:00.449Z,103338.75
2023-02-14T03:48:49.204Z,103338.97
2023-02-14T03:51:36.835Z,103340.13
2023-02-14T03:54:25.307Z,103335.22
2023-02-14T03:57:20.339Z,103339.03
2023-02-14T04:00:10.474Z,103325.97
2023-02-14T04:03:04.749Z,103318.44
2023-02-14T04:05:52.416Z,103325.50
2023-02-14T04:08:39.604Z,103333.53
2023-02-14T04:11:26.559Z,103333.81
2023-02-14T04:14:13.153Z,103339.34
2023-02-14T04:17:18.779Z,103344.78
2023-02-14T04:20:06.534Z,103336.81
2023-02-14T04:22:52.931Z,103334.41
2023-02-14T04:25:42.934Z,103336.72
2023-02-14T04:28:29.472Z,103339.03
2023-02-14T04:31:17.443Z,103335.44
2023-02-14T04:34:05.715Z,103337.66
2023-02-14T04:36:52.215Z,103328.91
2023-02-14T04:39:39.168Z,103330.66
2023-02-14T04:42:26.024Z,103330.84
2023-02-14T04:45:12.704Z,103331.63
2023-02-14T04:47:59.069Z,103339.38
2023-02-14T04:50:52.532Z,103336.13
2023-02-14T04:53:40.464Z,103331.22
2023-02-14T04:56:27.149Z,103338.28
2023-02-14T04:59:14.421Z,103342.50
2023-02-14T05:02:01.297Z,103348.19
2023-02-14T05:04:49.737Z,103347.53
2023-02-14T05:07:37.455Z,103353.03
2023-02-14T05:10:24.042Z,103355.63
2023-02-14T05:13:10.582Z,103364.72
2023-02-14T05:15:57.570Z,103363.88
2023-02-14T05:18:44.249Z,103370.16
2023-02-14T05:21:33.112Z,103370.75
2023-02-14T05:24:21.102Z,103370.75
2023-02-14T05:27:07.786Z,103363.59
2023-02-14T05:29:54.572Z,103360.53
2023-02-14T05:32:41.206Z,103362.31
2023-02-14T05:35:28.186Z,103351.63
2023-02-14T05:38:14.942Z,103359.03
2023-02-14T05:41:03.269Z,103353.81
2023-02-14T05:43:49.401Z,103345.00
2023-02-14T05:46:36.006Z,103353.34
2023-02-14T05:49:22.854Z,103355.88
2023-02-14T05:52:09.570Z,103355.09
2023-02-14T05:54:55.988Z,103351.75
2023-02-14T05:57:44.031Z,103354.41
2023-02-14T06:00:30.593Z,103352.59
2023-02-14T06:03:17.372Z,103351.00
2023-02-14T06:06:04.484Z,103345.88
2023-02-14T06:08:50.792Z,103347.19
2023-02-14T06:11:37.061Z,103342.81
2023-02-14T06:14:24.909Z,103345.59
2023-02-14T06:17:11.835Z,103333.41
2023-02-14T06:19:58.029Z,103327.38
2023-02-14T06:22:44.621Z,103330.97
2023-02-14T06:25:31.366Z,103331.38
2023-02-14T06:28:17.902Z,103327.28
2023-02-14T06:31:06.248Z,103329.16
2023-02-14T06:33:53.487Z,103339.22
2023-02-14T06:36:40.259Z,103346.06
2023-02-14T06:39:27.596Z,103357.91
2023-02-14T06:42:14.483Z,103361.31
2023-02-14T06:45:02.516Z,103374.53
2023-02-14T06:47:50.511Z,103371.69
2023-02-14T06:50:37.141Z,103376.53
2023-02-14T06:53:23.838Z,103373.97
2023-02-14T06:56:10.658Z,103368.84
2023-02-14T06:58:57.295Z,103376.84
2023-02-14T07:01:44.091Z,103379.75
2023-02-14T07:04:32.449Z,103382.25
2023-02-14T07:07:19.180Z,103377.81
2023-02-14T07:10:06.943Z,103380.59
2023-02-14T07:12:53.684Z,103370.88
2023-02-14T07:15:40.329Z,103360.59
2023-02-14T07:18:27.132Z,103368.28
2023-02-14T07:21:15.145Z,103371.25
2023-02-14T07:24:01.982Z,103376.44
2023-02-14T07:26:48.897Z,103374.03
2023-02-14T07:29:35.999Z,103376.97
2023-02-14T07:32:23.470Z,103381.28
2023-02-14T07:35:10.550Z,103388.31
2023-02-14T07:37:59.088Z,103392.09
2023-02-14T07:40:45.821Z,103396.22
2023-02-14T07:43:34.381Z,103403.78
2023-02-14T07:46:21.480Z,103408.84
2023-02-14T07:49:08.525Z,103419.41
2023-02-14T07:51:55.208Z,103419.16
2023-02-14T07:54:43.150Z,103430.72
2023-02-14T07:57:29.826Z,103434.84
2023-02-14T08:00:17.071Z,103432.00
2023-02-14T08:03:03.940Z,103446.22
2023-02-14T08:05:57.199Z,103442.19
2023-02-14T08:08:44.156Z,103453.34
2023-02-14T08:11:49.788Z,103450.81
2023-02-14T08:14:36.575Z,103454.38
2023-02-14T08:17:23.178Z,103452.78
2023-02-14T08:20:10.490Z,103449.72
2023-02-14T08:22:57.597Z,103459.94
2023-02-14T08:25:44.313Z,103461.28
2023-02-14T08:28:33.039Z,103456.88
2023-02-14T08:31:34.335Z,103461.19
2023-02-14T08:34:21.695Z,103464.34
2023-02-14T08:37:08.433Z,103464.59
2023-02-14T08:39:55.121Z,103469.91
2023-02-14T08:42:41.767Z,103479.91
2023-02-14T08:45:29.832Z,103476.72
2023-02-14T08:48:16.707Z,103491.56
2023-02-14T08:51:06.697Z,103480.28
2023-02-14T08:53:54.545Z,103485.69
2023-02-14T08:56:41.715Z,103487.09
2023-02-14T08:59:29.037Z,103487.19
2023-02-14T09:02:17.254Z,103493.88
2023-02-14T09:05:03.838Z,103487.25
2023-02-14T09:07:50.758Z,103475.06
2023-02-14T09:10:37.819Z,103464.22
2023-02-14T09:13:24.701Z,103456.03
2023-02-14T09:16:12.948Z,103440.94
2023-02-14T09:19:00.965Z,103433.25
2023-02-14T09:21:47.642Z,103411.59
2023-02-14T09:24:36.566Z,103408.06
2023-02-14T09:27:23.213Z,103384.59
2023-02-14T09:30:11.623Z,103382.53
2023-02-14T09:32:58.436Z,103349.34
2023-02-14T09:35:46.489Z,103341.00
2023-02-14T09:38:33.398Z,103320.25
2023-02-14T09:41:50.106Z,103306.41
2023-02-14T09:44:40.875Z,103293.47
2023-02-14T09:47:37.041Z,103283.25
2023-02-14T09:50:26.651Z,103272.72
2023-02-14T09:53:22.710Z,103252.47
2023-02-14T09:56:17.905Z,103257.19
2023-02-14T09:59:14.150Z,103237.16
2023-02-14T10:02:20.015Z,103233.47
2023-02-14T10:05:14.059Z,103224.63
2023-02-14T10:08:11.430Z,103210.38
2023-02-14T10:11:05.339Z,103210.03
2023-02-14T10:13:56.070Z,103207.22
2023-02-14T10:16:47.207Z,103197.34
2023-02-14T10:19:39.398Z,103191.00
2023-02-14T10:22:42.707Z,103183.00
2023-02-14T10:25:35.505Z,103184.75
2023-02-14T10:28:31.157Z,103178.69
2023-02-14T10:31:22.817Z,103180.66
2023-02-14T10:34:17.093Z,103170.16
2023-02-14T10:37:25.446Z,103166.25
2023-02-14T10:40:36.139Z,103167.94
2023-02-14T10:43:35.863Z,103160.22
2023-02-14T10:46:34.834Z,103156.13
2023-02-14T10:49:35.511Z,103158.59
2023-02-14T10:52:27.774Z,103161.75
2023-02-14T10:55:31.987Z,103160.28
2023-02-14T10:58:22.235Z,103154.28
2023-02-14T11:01:13.618Z,103165.09
2023-02-14T11:04:06.552Z,103173.47
2023-02-14T11:06:53.919Z,103167.72
2023-02-14T11:09:40.577Z,103170.16
2023-02-14T11:12:35.594Z,103175.53
2023-02-14T11:15:27.556Z,103176.38
2023-02-14T11:18:25.773Z,103174.38
2023-02-14T11:21:15.031Z,103182.06
2023-02-14T11:24:03.525Z,103166.69
2023-02-14T11:26:52.997Z,103168.50
2023-02-14T11:29:47.946Z,103169.84
2023-02-14T11:32:37.646Z,103165.41
2023-02-14T11:35:33.900Z,103163.66
2023-02-14T11:38:31.766Z,103163.22
2023-02-14T11:41:18.717Z,103161.25
2023-02-14T11:44:24.263Z,103157.88
2023-02-14T11:47:26.327Z,103158.59
2023-02-14T11:50:23.240Z,103158.53
2023-02-14T11:53:13.481Z,103148.53
2023-02-14T11:56:01.276Z,103145.44
2023-02-14T11:58:52.430Z,103144.69
2023-02-14T12:01:39.750Z,103147.63
2023-02-14T12:04:38.228Z,103138.19
2023-02-14T12:07:34.682Z,103131.88
2023-02-14T12:10:28.503Z,103130.03
2023-02-14T12:13:26.051Z,103130.47
2023-02-14T12:16:23.303Z,103120.28
2023-02-14T12:19:18.830Z,103123.47
2023-02-14T12:22:07.343Z,103119.47
2023-02-14T12:25:03.270Z,103114.03
2023-02-14T12:27:58.186Z,103113.59
2023-02-14T12:30:44.675Z,103113.63
2023-02-14T12:33:31.334Z,103103.03
2023-02-14T12:36:34.874Z,103103.91
2023-02-14T12:39:32.824Z,103101.59
2023-02-14T12:42:34.405Z,103099.28
2023-02-14T12:45:31.489Z,103091.16
2023-02-14T12:48:30.179Z,103088.00
2023-02-14T12:51:25.005Z,103094.00
2023-02-14T12:54:33.444Z,103092.72
2023-02-14T12:57:32.777Z,103097.84
2023-02-14T13:00:36.190Z,103086.72
2023-02-14T13:03:44.965Z,103089.84
2023-02-14T13:06:35.335Z,103079.91
2023-02-14T13:09:35.722Z,103065.13
2023-02-14T13:12:33.294Z,103074.66
2023-02-14T13:15:28.698Z,103073.84
2023-02-14T13:18:27.364Z,103072.19
2023-02-14T13:21:18.845Z,103055.38
2023-02-14T13:24:16.096Z,103061.50
2023-02-14T13:27:08.184Z,103060.78
2023-02-14T13:29:58.926Z,103051.50
2023-02-14T13:32:49.427Z,103049.53
2023-02-14T13:35:36.161Z,103052.31
2023-02-14T13:38:25.152Z,103056.31
2023-02-14T13:41:13.052Z,103054.38
2023-02-14T13:44:01.697Z,103058.25
2023-02-14T13:46:52.883Z,103052.50
2023-02-14T13:49:47.794Z,103056.41
2023-02-14T13:52:45.988Z,103046.56
2023-02-14T13:55:36.483Z,103043.59
2023-02-14T13:58:25.800Z,103028.16
2023-02-14T14:01:40.643Z,103030.44
2023-02-14T14:04:38.718Z,103032.88
2023-02-14T14:07:30.697Z,103029.44
2023-02-14T14:10:44.250Z,103023.44
2023-02-14T14:13:56.442Z,103020.66
2023-02-14T14:16:58.810Z,103019.25
2023-02-14T14:19:47.405Z,103023.50
2023-02-14T14:22:47.722Z,103020.81
2023-02-14T14:25:37.447Z,103019.16
2023-02-14T14:28:28.107Z,103014.09
2023-02-14T14:31:15.039Z,103025.78
2023-02-14T14:34:02.450Z,103012.91
2023-02-14T14:36:49.058Z,103006.56
2023-02-14T14:39:39.914Z,103021.03
2023-02-14T14:42:30.498Z,103007.16
2023-02-14T14:45:23.901Z,103008.22
2023-02-14T14:48:14.363Z,103010.41
2023-02-14T14:51:01.602Z,103007.69
2023-02-14T14:53:52.128Z,103002.13
2023-02-14T14:56:49.955Z,103012.75
2023-02-14T14:59:39.640Z,103020.75
2023-02-14T15:02:30.463Z,103006.72
2023-02-14T15:05:26.010Z,103018.88
2023-02-14T15:08:23.931Z,103008.97
2023-02-14T15:11:34.500Z,103008.13
2023-02-14T15:14:24.665Z,103018.47
2023-02-14T15:17:15.590Z,103017.19
2023-02-14T15:20:04.017Z,103019.44
2023-02-14T15:22:53.607Z,103024.03
2023-02-14T15:25:44.573Z,103017.78
2023-02-14T15:28:33.649Z,103023.63
2023-02-14T15:31:22.288Z,103024.38
2023-02-14T15:34:10.874Z,103021.06
2023-02-14T15:37:03.568Z,103022.22
2023-02-14T15:39:53.314Z,103020.38
2023-02-14T15:42:44.535Z,103015.53
2023-02-14T15:45:32.491Z,103019.78
2023-02-14T15:48:25.255Z,103007.97
2023-02-14T15:51:19.894Z,103010.53
2023-02-14T15:54:08.545Z,103008.69
2023-02-14T15:56:56.732Z,103004.84
2023-02-14T15:59:43.817Z,102994.06
2023-02-14T16:02:36.211Z,102999.13
2023-02-14T16:05:27.518Z,102995.94
2023-02-14T16:08:29.410Z,102998.25
2023-02-14T16:11:29.851Z,103003.44
2023-02-14T16:14:32.254Z,103009.66
2023-02-14T16:17:33.054Z,102995.84
2023-02-14T16:20:22.690Z,103002.13
2023-02-14T16:23:18.649Z,102994.97
2023-02-14T16:26:07.884Z,102989.47
2023-02-14T16:28:54.707Z,102989.78
2023-02-14T16:32:01.233Z,102989.63
2023-02-14T16:34:51.339Z,102981.78
2023-02-14T16:37:39.706Z,102974.16
2023-02-14T16:40:29.776Z,102972.97
2023-02-14T16:43:17.804Z,102974.06
2023-02-14T16:46:04.842Z,102970.72
2023-02-14T16:48:52.362Z,102975.09
2023-02-14T16:51:42.628Z,102980.00
2023-02-14T16:54:29.445Z,102973.28
2023-02-14T16:57:21.573Z,102969.72
2023-02-14T17:00:10.242Z,102971.72
2023-02-14T17:03:04.477Z,102969.16
2023-02-14T17:05:51.824Z,102977.63
2023-02-14T17:08:40.070Z,102968.16
2023-02-14T17:11:27.879Z,102971.81
2023-02-14T17:14:21.346Z,102966.63
2023-02-14T17:17:07.905Z,102972.00
2023-02-14T17:19:54.883Z,102969.28
2023-02-14T17:22:42.537Z,102974.59
2023-02-14T17:25:29.232Z,102971.03
2023-02-14T17:28:15.978Z,102972.06
2023-02-14T17:31:04.637Z,102968.34
2023-02-14T17:33:51.564Z,102968.16
2023-02-14T17:36:38.579Z,102964.41
2023-02-14T17:39:25.399Z,102966.94
2023-02-14T17:42:12.249Z,102961.25
2023-02-14T17:44:59.181Z,102969.47
2023-02-14T17:47:47.449Z,102969.38
2023-02-14T17:50:34.509Z,102963.69
2023-02-14T17:53:21.151Z,102965.81
2023-02-14T17:56:10.712Z,102965.38
2023-02-14T17:58:57.480Z,102963.75
2023-02-14T18:01:44.104Z,102964.09
2023-02-14T18:04:34.838Z,102961.06
2023-02-14T18:07:23.801Z,102953.22
2023-02-14T18:10:11.583Z,102952.03
2023-02-14T18:12:58.087Z,102945.16
2023-02-14T18:15:45.994Z,102955.88
2023-02-14T18:18:33.258Z,102947.94
2023-02-14T18:21:22.860Z,102941.63
2023-02-14T18:24:10.786Z,102947.09
2023-02-14T18:26:57.291Z,102943.66
2023-02-14T18:29:44.623Z,102929.66
2023-02-14T18:32:30.916Z,102935.34
2023-02-14T18:35:17.488Z,102925.78
2023-02-14T18:38:05.903Z,102922.00
2023-02-14T18:40:52.626Z,102924.72
2023-02-14T18:43:40.950Z,102924.56
2023-02-14T18:46:30.609Z,102917.91
2023-02-14T18:49:17.646Z,102921.91
2023-02-14T18:52:04.948Z,102915.56
2023-02-14T18:54:53.274Z,102914.69
2023-02-14T18:57:40.323Z,102905.44
2023-02-14T19:00:27.166Z,102904.91
2023-02-14T19:03:14.037Z,102905.75
2023-02-14T19:06:00.692Z,102899.09
2023-02-14T19:08:48.092Z,102898.66
2023-02-14T19:11:36.127Z,102893.38
2023-02-14T19:14:22.754Z,102893.59
2023-02-14T19:17:09.386Z,102889.91
2023-02-14T19:19:56.504Z,102900.22
2023-02-14T19:22:43.300Z,102888.59
2023-02-14T19:25:32.573Z,102894.56
2023-02-14T19:28:20.675Z,102880.81
2023-02-14T19:31:07.931Z,102893.63
2023-02-14T19:33:54.847Z,102893.25
2023-02-14T19:36:41.449Z,102883.78
2023-02-14T19:39:29.501Z,102895.91
2023-02-14T19:42:15.911Z,102889.31
2023-02-14T19:45:04.043Z,102885.06
2023-02-14T19:47:51.128Z,102892.22
2023-02-14T19:50:39.217Z,102892.59
2023-02-14T19:53:25.441Z,102890.25
2023-02-14T19:56:12.450Z,102892.09
2023-02-14T19:58:59.713Z,102889.06
2023-02-14T20:01:49.070Z,102885.38
2023-02-14T20:04:35.449Z,102887.81
2023-02-14T20:07:22.187Z,102887.78
2023-02-14T20:10:09.088Z,102886.34
2023-02-14T20:12:55.726Z,102885.03
2023-02-14T20:15:45.177Z,102890.13
2023-02-14T20:18:35.667Z,102880.63
2023-02-14T20:21:25.407Z,102875.19
2023-02-14T20:24:13.335Z,102864.84
2023-02-14T20:27:02.277Z,102864.00
2023-02-14T20:29:48.958Z,102864.53
2023-02-14T20:32:36.296Z,102861.00
2023-02-14T20:35:24.610Z,102864.44
2023-02-14T20:38:11.795Z,102867.81
2023-02-14T20:40:58.850Z,102863.41
2023-02-14T20:43:45.654Z,102872.59
2023-02-14T20:46:32.889Z,102861.78
2023-02-14T20:49:19.720Z,102858.91
2023-02-14T20:52:07.664Z,102852.66
2023-02-14T20:54:54.014Z,102843.88
2023-02-14T20:57:40.503Z,102842.44
2023-02-14T21:00:27.912Z,102842.78
2023-02-14T21:03:14.791Z,102834.38
2023-02-14T21:06:01.296Z,102834.84
2023-02-14T21:08:49.894Z,102836.19
2023-02-14T21:11:36.361Z,102841.75
2023-02-14T21:14:23.407Z,102841.09
2023-02-14T21:17:10.210Z,102845.03
2023-02-14T21:19:56.768Z,102843.59
2023-02-14T21:22:43.326Z,102846.72
2023-02-14T21:25:32.906Z,102849.88
2023-02-14T21:28:19.544Z,102843.84
2023-02-14T21:31:07.999Z,102837.22
2023-02-14T21:33:56.531Z,102834.06
2023-02-14T21:36:43.626Z,102833.63
2023-02-14T21:39:31.061Z,102835.72
2023-02-14T21:42:21.161Z,102831.44
2023-02-14T21:45:26.250Z,102829.78
2023-02-14T21:48:30.624Z,102828.50
2023-02-14T21:51:17.492Z,102830.00
2023-02-14T21:54:04.123Z,102822.13
2023-02-14T21:56:50.778Z,102816.94
2023-02-14T21:59:40.248Z,102820.94
2023-02-14T22:02:26.969Z,102815.41
2023-02-14T22:05:13.206Z,102810.31
2023-02-14T22:07:59.827Z,102817.28
2023-02-14T22:10:46.429Z,102809.06
2023-02-14T22:13:32.996Z,102808.72
2023-02-14T22:16:22.122Z,102802.41
2023-02-14T22:19:10.014Z,102808.91
2023-02-14T22:21:56.611Z,102818.66
2023-02-14T22:24:43.251Z,102809.00
2023-02-14T22:27:30.194Z,102803.72
2023-02-14T22:30:16.945Z,102799.88
2023-02-14T22:33:04.717Z,102792.69
2023-02-14T22:35:55.389Z,102796.03
2023-02-14T22:38:42.436Z,102797.28
2023-02-14T22:41:28.932Z,102797.28
2023-02-14T22:44:15.584Z,102801.69
2023-02-14T22:47:02.204Z,102799.25
2023-02-14T22:49:50.243Z,102804.88
2023-02-14T22:52:36.579Z,102794.97
2023-02-14T22:55:23.275Z,102794.38
2023-02-14T22:58:09.879Z,102804.63
2023-02-14T23:04:29.310Z,102795.41
2023-02-14T23:07:17.234Z,102796.63
2023-02-14T23:10:03.682Z,102794.97
2023-02-14T23:13:08.018Z,102797.09
2023-02-14T23:16:12.654Z,102798.84
2023-02-14T23:19:17.151Z,102803.25
2023-02-14T23:22:05.922Z,102801.13
2023-02-14T23:24:57.072Z,102806.78
2023-02-14T23:27:45.288Z,102807.91
2023-02-14T23:30:31.969Z,102801.78
2023-02-14T23:33:18.723Z,102811.34
2023-02-14T23:36:05.526Z,102808.75
2023-02-14T23:38:51.912Z,102812.75
2023-02-14T23:41:49.096Z,102811.44
2023-02-14T23:44:36.447Z,102801.28
2023-02-14T23:47:23.204Z,102791.00
2023-02-14T23:50:10.427Z,102794.44
2023-02-14T23:52:57.054Z,102788.16
2023-02-14T23:55:43.351Z,102782.03
2023-02-14T23:58:31.136Z,102790.91
